createdAt,value
2022-12-17T00:01:04.707Z,13.80
2022-12-17T00:06:37.533Z,10.05
2022-12-17T00:09:23.203Z,13.95
2022-12-17T00:12:10.063Z,17.05
2022-12-17T00:14:55.891Z,17.42
2022-12-17T00:20:41.096Z,9.48
2022-12-17T00:23:27.767Z,12.13
2022-12-17T00:26:14.994Z,12.23
2022-12-17T00:29:01.169Z,17.45
2022-12-17T00:31:48.554Z,16.08
2022-12-17T00:34:34.690Z,15.10
2022-12-17T00:37:20.501Z,13.57
2022-12-17T00:40:05.839Z,14.20
2022-12-17T00:42:52.024Z,14.05
2022-12-17T00:48:23.162Z,10.40
2022-12-17T00:51:08.435Z,17.65
2022-12-17T00:53:53.838Z,17.27
2022-12-17T00:56:41.026Z,16.00
2022-12-17T00:59:26.734Z,18.98
2022-12-17T01:02:12.260Z,17.60
2022-12-17T01:04:57.758Z,15.63
2022-12-17T01:07:43.143Z,13.70
2022-12-17T01:10:28.565Z,16.45
2022-12-17T01:13:14.023Z,16.73
2022-12-17T01:15:59.792Z,16.42
2022-12-17T01:18:45.523Z,15.10
2022-12-17T01:21:31.359Z,13.85
2022-12-17T01:24:16.734Z,13.52
2022-12-17T01:27:02.967Z,8.80
2022-12-17T01:32:34.395Z,9.88
2022-12-17T01:35:20.252Z,13.18
2022-12-17T01:38:05.707Z,11.93
2022-12-17T01:40:51.461Z,9.18
2022-12-17T01:43:55.278Z,15.00
2022-12-17T01:46:41.288Z,12.75
2022-12-17T01:49:29.171Z,16.20
2022-12-17T01:52:16.655Z,12.23
2022-12-17T01:55:02.444Z,15.68
2022-12-17T01:57:48.473Z,15.88
2022-12-17T02:00:35.928Z,13.43
2022-12-17T02:03:22.591Z,11.30
2022-12-17T02:06:27.052Z,14.55
2022-12-17T02:09:57.255Z,11.23
2022-12-17T02:13:21.545Z,12.93
2022-12-17T02:16:20.414Z,11.15
2022-12-17T02:19:15.906Z,10.10
2022-12-17T02:22:02.967Z,13.15
2022-12-17T02:25:19.935Z,14.40
2022-12-17T02:28:06.251Z,13.60
2022-12-17T02:30:52.448Z,11.40
2022-12-17T02:33:38.977Z,11.52
2022-12-17T02:36:25.752Z,9.63
2022-12-17T02:39:18.623Z,15.70
2022-12-17T02:42:12.068Z,11.48
2022-12-17T02:44:59.371Z,13.00
2022-12-17T02:47:47.083Z,13.63
2022-12-17T02:50:33.333Z,14.40
2022-12-17T02:53:21.229Z,14.80
2022-12-17T02:56:06.550Z,16.63
2022-12-17T02:58:54.570Z,11.52
2022-12-17T03:01:40.128Z,11.75
2022-12-17T03:04:25.550Z,10.50
2022-12-17T03:07:10.829Z,8.30
2022-12-17T03:09:56.360Z,12.25
2022-12-17T03:12:43.138Z,8.82
2022-12-17T03:15:28.983Z,11.40
2022-12-17T03:18:14.354Z,12.50
2022-12-17T03:20:59.703Z,6.95
2022-12-17T03:23:45.285Z,11.75
2022-12-17T03:26:30.656Z,9.90
2022-12-17T03:29:16.443Z,9.75
2022-12-17T03:32:01.764Z,9.20
2022-12-17T03:34:47.102Z,15.20
2022-12-17T03:37:32.447Z,10.40
2022-12-17T03:40:17.793Z,10.45
2022-12-17T03:43:03.094Z,9.00
2022-12-17T03:45:48.306Z,12.52
2022-12-17T03:48:34.487Z,7.63
2022-12-17T03:54:05.549Z,8.23
2022-12-17T03:56:51.374Z,9.50
2022-12-17T03:59:36.902Z,9.30
2022-12-17T04:02:43.050Z,11.35
2022-12-17T04:05:28.690Z,9.95
2022-12-17T04:08:14.202Z,11.40
2022-12-17T04:10:59.615Z,10.40
2022-12-17T04:13:45.187Z,8.82
2022-12-17T04:16:30.901Z,11.95
2022-12-17T04:19:16.434Z,12.15
2022-12-17T04:22:01.607Z,9.15
2022-12-17T04:24:47.002Z,8.20
2022-12-17T04:27:32.108Z,9.45
2022-12-17T04:30:17.532Z,8.32
2022-12-17T04:33:03.176Z,10.05
2022-12-17T04:35:48.480Z,10.23
2022-12-17T04:38:33.938Z,10.70
2022-12-17T04:41:19.336Z,7.95
2022-12-17T04:44:04.666Z,11.40
2022-12-17T04:46:50.031Z,12.20
2022-12-17T04:49:35.524Z,9.27
2022-12-17T04:52:21.214Z,10.75
2022-12-17T04:55:06.550Z,7.70
2022-12-17T04:57:52.422Z,12.80
2022-12-17T05:00:38.248Z,23.75
2022-12-17T05:03:31.280Z,17.15
2022-12-17T05:06:16.746Z,20.80
2022-12-17T05:09:02.047Z,20.48
2022-12-17T05:11:47.203Z,20.52
2022-12-17T05:14:32.829Z,10.47
2022-12-17T05:17:18.226Z,18.55
2022-12-17T05:20:03.835Z,19.83
2022-12-17T05:22:49.752Z,18.00
2022-12-17T05:25:35.350Z,28.42
2022-12-17T05:28:20.683Z,10.02
2022-12-17T05:31:13.891Z,10.25
2022-12-17T05:33:59.622Z,8.65
2022-12-17T05:36:45.022Z,8.35
2022-12-17T05:39:30.416Z,7.85
2022-12-17T05:42:15.793Z,8.02
2022-12-17T05:45:01.218Z,9.57
2022-12-17T05:47:46.706Z,9.02
2022-12-17T05:50:32.178Z,5.60
2022-12-17T05:53:24.905Z,6.35
2022-12-17T05:56:11.991Z,5.72
2022-12-17T05:58:58.327Z,7.18
2022-12-17T06:01:43.796Z,6.93
2022-12-17T06:04:29.489Z,7.70
2022-12-17T06:07:19.462Z,8.40
2022-12-17T06:10:04.972Z,4.38
2022-12-17T06:12:50.450Z,5.53
2022-12-17T06:15:35.686Z,6.90
2022-12-17T06:18:21.222Z,6.25
2022-12-17T06:21:07.231Z,6.13
2022-12-17T06:23:52.761Z,6.97
2022-12-17T06:26:38.123Z,9.65
2022-12-17T06:29:23.424Z,5.20
2022-12-17T06:32:08.733Z,4.53
2022-12-17T06:34:54.047Z,8.05
2022-12-17T06:37:39.739Z,7.65
2022-12-17T06:40:25.754Z,6.25
2022-12-17T06:43:15.205Z,6.90
2022-12-17T06:46:00.767Z,5.45
2022-12-17T06:48:46.170Z,4.57
2022-12-17T06:51:31.349Z,5.75
2022-12-17T06:54:17.346Z,4.97
2022-12-17T06:57:02.663Z,8.68
2022-12-17T06:59:48.430Z,7.20
2022-12-17T07:02:34.090Z,7.72
2022-12-17T07:05:19.473Z,17.45
2022-12-17T07:08:04.912Z,11.43
2022-12-17T07:10:50.408Z,7.10
2022-12-17T07:13:35.954Z,6.63
2022-12-17T07:16:21.860Z,7.25
2022-12-17T07:19:07.229Z,8.20
2022-12-17T07:21:52.600Z,6.97
2022-12-17T07:24:37.747Z,6.13
2022-12-17T07:27:23.421Z,6.93
2022-12-17T07:30:09.023Z,7.38
2022-12-17T07:32:54.321Z,6.85
2022-12-17T07:35:39.588Z,6.55
2022-12-17T07:38:25.488Z,5.28
2022-12-17T07:41:10.724Z,5.75
2022-12-17T07:43:56.158Z,6.25
2022-12-17T07:46:42.092Z,3.40
2022-12-17T07:49:27.817Z,5.90
2022-12-17T07:52:13.405Z,5.57
2022-12-17T07:54:58.762Z,7.70
2022-12-17T07:57:44.445Z,5.63
2022-12-17T08:00:30.947Z,8.68
2022-12-17T08:03:20.269Z,8.80
2022-12-17T08:06:05.710Z,7.38
2022-12-17T08:08:51.125Z,8.07
2022-12-17T08:11:36.524Z,5.60
2022-12-17T08:14:22.096Z,7.32
2022-12-17T08:17:07.595Z,6.82
2022-12-17T08:19:53.004Z,8.07
2022-12-17T08:22:38.297Z,5.97
2022-12-17T08:25:23.861Z,8.43
2022-12-17T08:28:48.423Z,6.90
2022-12-17T08:31:21.262Z,6.75
2022-12-17T08:34:08.165Z,6.10
2022-12-17T08:36:54.109Z,5.28
2022-12-17T08:39:39.412Z,9.07
2022-12-17T08:42:24.731Z,6.53
2022-12-17T08:45:10.116Z,8.48
2022-12-17T08:47:59.236Z,6.35
2022-12-17T08:50:49.049Z,12.25
2022-12-17T08:53:35.144Z,9.10
2022-12-17T08:56:20.811Z,9.88
2022-12-17T08:59:06.577Z,6.18
2022-12-17T09:01:51.997Z,11.57
2022-12-17T09:04:37.819Z,11.82
2022-12-17T09:07:23.553Z,10.82
2022-12-17T09:10:09.057Z,12.02
2022-12-17T09:12:54.301Z,11.15
2022-12-17T09:15:39.980Z,10.88
2022-12-17T09:18:25.446Z,8.88
2022-12-17T09:21:14.483Z,13.93
2022-12-17T09:24:00.006Z,12.80
2022-12-17T09:26:45.141Z,12.10
2022-12-17T09:29:35.245Z,11.32
2022-12-17T09:32:21.064Z,13.18
2022-12-17T09:35:06.383Z,12.50
2022-12-17T09:37:51.924Z,12.45
2022-12-17T09:40:41.447Z,11.70
2022-12-17T09:44:06.390Z,13.88
2022-12-17T09:46:54.862Z,12.48
2022-12-17T09:49:48.039Z,12.23
2022-12-17T09:52:43.120Z,17.17
2022-12-17T09:55:48.420Z,11.32
2022-12-17T09:58:45.492Z,14.38
2022-12-17T10:01:37.645Z,15.90
2022-12-17T10:04:26.021Z,23.17
2022-12-17T10:07:11.468Z,15.77
2022-12-17T10:09:57.254Z,11.30
2022-12-17T10:12:42.666Z,15.30
2022-12-17T10:15:41.290Z,10.98
2022-12-17T10:18:30.861Z,15.43
2022-12-17T10:21:19.574Z,15.73
2022-12-17T10:24:04.811Z,14.73
2022-12-17T10:26:52.555Z,15.30
2022-12-17T10:29:47.101Z,18.92
2022-12-17T10:32:33.132Z,17.40
2022-12-17T10:35:39.387Z,18.15
2022-12-17T10:38:51.504Z,12.52
2022-12-17T10:41:46.024Z,13.70
2022-12-17T10:44:53.654Z,18.40
2022-12-17T10:47:40.380Z,21.90
2022-12-17T10:50:41.597Z,24.58
2022-12-17T10:53:41.281Z,23.10
2022-12-17T10:56:40.604Z,25.38
2022-12-17T10:59:50.026Z,25.40
2022-12-17T11:02:39.460Z,24.48
2022-12-17T11:05:41.160Z,28.10
2022-12-17T11:08:27.651Z,21.67
2022-12-17T11:11:13.072Z,23.13
2022-12-17T11:14:08.100Z,27.92
2022-12-17T11:17:03.396Z,21.65
2022-12-17T11:20:01.112Z,21.48
2022-12-17T11:23:09.993Z,29.80
2022-12-17T11:26:21.245Z,24.63
2022-12-17T11:29:06.807Z,23.00
2022-12-17T11:32:05.183Z,20.25
2022-12-17T11:35:19.704Z,21.50
2022-12-17T11:38:05.046Z,26.35
2022-12-17T11:40:59.461Z,28.47
2022-12-17T11:43:57.536Z,27.48
2022-12-17T11:46:57.576Z,30.15
2022-12-17T11:49:55.847Z,22.33
2022-12-17T11:52:56.709Z,23.85
2022-12-17T11:56:01.451Z,24.85
2022-12-17T11:59:00.775Z,25.20
2022-12-17T12:02:17.449Z,29.42
2022-12-17T12:05:10.462Z,21.63
2022-12-17T12:08:11.651Z,22.70
2022-12-17T12:11:26.869Z,24.20
2022-12-17T12:14:45.031Z,21.02
2022-12-17T12:18:04.823Z,23.48
2022-12-17T12:21:02.397Z,29.00
2022-12-17T12:23:54.355Z,23.33
2022-12-17T12:26:49.511Z,24.35
2022-12-17T12:29:53.740Z,33.85
2022-12-17T12:32:57.383Z,22.88
2022-12-17T12:35:46.815Z,29.70
2022-12-17T12:38:45.854Z,30.38
2022-12-17T12:42:05.892Z,29.45
2022-12-17T12:45:11.398Z,25.92
2022-12-17T12:48:09.587Z,27.75
2022-12-17T12:51:01.094Z,27.38
2022-12-17T12:53:46.349Z,28.92
2022-12-17T12:56:54.377Z,26.98
2022-12-17T12:59:45.552Z,28.50
2022-12-17T13:02:48.042Z,31.40
2022-12-17T13:05:34.473Z,28.25
2022-12-17T13:08:10.040Z,25.15
2022-12-17T13:10:37.682Z,27.00
2022-12-17T13:13:15.654Z,33.58
2022-12-17T13:15:48.046Z,33.20
2022-12-17T13:18:32.864Z,35.10
2022-12-17T13:21:01.350Z,28.05
2022-12-17T13:23:34.901Z,36.40
2022-12-17T13:26:23.654Z,33.13
2022-12-17T13:29:00.854Z,32.47
2022-12-17T13:31:44.106Z,35.10
2022-12-17T13:34:28.998Z,33.53
2022-12-17T13:37:07.311Z,29.77
2022-12-17T13:40:07.019Z,34.20
2022-12-17T13:42:36.536Z,28.55
2022-12-17T13:45:04.375Z,30.00
2022-12-17T13:47:34.525Z,30.67
2022-12-17T13:50:33.322Z,30.80
2022-12-17T13:52:51.691Z,31.20
2022-12-17T13:55:22.641Z,30.50
2022-12-17T13:57:50.672Z,33.85
2022-12-17T14:00:24.273Z,33.50
2022-12-17T14:02:52.112Z,29.05
2022-12-17T14:05:38.184Z,31.42
2022-12-17T14:08:05.952Z,33.47
2022-12-17T14:10:33.228Z,39.92
2022-12-17T14:13:10.558Z,32.45
2022-12-17T14:15:37.533Z,31.02
2022-12-17T14:18:05.012Z,34.15
2022-12-17T14:20:35.517Z,30.20
2022-12-17T14:23:02.415Z,28.58
2022-12-17T14:25:36.843Z,32.85
2022-12-17T14:28:19.703Z,26.35
2022-12-17T14:31:17.696Z,32.15
2022-12-17T14:33:36.401Z,31.23
2022-12-17T14:36:25.852Z,33.05
2022-12-17T14:38:57.595Z,32.35
2022-12-17T14:41:44.319Z,30.27
2022-12-17T14:44:26.151Z,30.52
2022-12-17T14:47:13.385Z,29.25
2022-12-17T14:50:09.244Z,31.80
2022-12-17T14:52:38.240Z,27.33
2022-12-17T14:55:29.232Z,30.50
2022-12-17T14:58:13.708Z,35.70
2022-12-17T15:00:46.780Z,35.00
2022-12-17T15:03:23.623Z,31.17
2022-12-17T15:05:53.685Z,35.50
2022-12-17T15:08:21.705Z,35.58
2022-12-17T15:10:48.812Z,33.00
2022-12-17T15:13:15.651Z,32.90
2022-12-17T15:15:42.447Z,31.90
2022-12-17T15:18:09.370Z,31.42
2022-12-17T15:20:36.614Z,32.83
2022-12-17T15:23:03.496Z,31.00
2022-12-17T15:25:30.663Z,31.30
2022-12-17T15:27:57.579Z,33.63
2022-12-17T15:30:24.499Z,35.47
2022-12-17T15:32:51.343Z,38.38
2022-12-17T15:35:18.264Z,35.88
2022-12-17T15:37:45.086Z,37.60
2022-12-17T15:40:12.184Z,36.35
2022-12-17T15:43:01.645Z,37.20
2022-12-17T15:45:32.850Z,33.25
2022-12-17T15:47:59.711Z,37.90
2022-12-17T15:50:26.555Z,38.75
2022-12-17T15:52:53.310Z,35.15
2022-12-17T15:55:20.199Z,34.83
2022-12-17T15:57:47.093Z,35.53
2022-12-17T16:00:14.434Z,35.35
2022-12-17T16:02:41.325Z,34.58
2022-12-17T16:05:08.632Z,35.15
2022-12-17T16:07:37.031Z,27.13
2022-12-17T16:10:05.773Z,28.27
2022-12-17T16:12:33.464Z,27.50
2022-12-17T16:15:00.376Z,31.77
2022-12-17T16:17:28.730Z,31.35
2022-12-17T16:19:56.010Z,27.85
2022-12-17T16:22:22.889Z,27.48
2022-12-17T16:24:49.742Z,27.48
2022-12-17T16:27:18.116Z,30.40
2022-12-17T16:29:47.919Z,27.88
2022-12-17T16:32:15.979Z,28.13
2022-12-17T16:34:43.492Z,28.58
2022-12-17T16:37:11.467Z,31.58
2022-12-17T16:39:38.942Z,37.28
2022-12-17T16:42:05.791Z,52.40
2022-12-17T16:44:32.588Z,71.40
2022-12-17T16:46:59.773Z,88.93
2022-12-17T16:49:27.248Z,82.45
2022-12-17T16:51:57.820Z,53.38
2022-12-17T16:54:27.049Z,44.05
2022-12-17T16:56:54.680Z,38.42
2022-12-17T16:59:23.361Z,40.28
2022-12-17T17:01:51.684Z,37.05
2022-12-17T17:04:21.819Z,39.47
2022-12-17T17:06:51.478Z,49.45
2022-12-17T17:09:19.204Z,36.83
2022-12-17T17:11:51.227Z,32.83
2022-12-17T17:14:18.503Z,33.78
2022-12-17T17:16:45.288Z,37.67
2022-12-17T17:19:12.066Z,36.22
2022-12-17T17:21:40.765Z,36.63
2022-12-17T17:24:16.801Z,42.30
2022-12-17T17:26:47.846Z,38.38
2022-12-17T17:29:14.852Z,39.97
2022-12-17T17:34:28.490Z,37.15
2022-12-17T17:36:55.279Z,39.05
2022-12-17T17:39:22.158Z,34.75
2022-12-17T17:41:48.958Z,33.03
2022-12-17T17:44:15.854Z,34.20
2022-12-17T17:46:42.822Z,37.65
2022-12-17T17:49:10.557Z,32.40
2022-12-17T17:54:28.171Z,32.47
2022-12-17T17:56:55.551Z,35.88
2022-12-17T17:59:29.568Z,34.88
2022-12-17T18:02:00.627Z,36.33
2022-12-17T18:04:27.864Z,32.58
2022-12-17T18:09:41.694Z,28.27
2022-12-17T18:12:27.221Z,33.10
2022-12-17T18:17:41.176Z,30.45
2022-12-17T18:20:09.774Z,29.27
2022-12-17T18:22:37.184Z,31.48
2022-12-17T18:25:04.651Z,29.13
2022-12-17T18:27:31.694Z,34.45
2022-12-17T18:29:58.623Z,28.40
2022-12-17T18:32:25.792Z,27.08
2022-12-17T18:34:52.912Z,31.42
2022-12-17T18:37:19.864Z,31.55
2022-12-17T18:39:47.343Z,41.78
2022-12-17T18:42:33.069Z,35.55
2022-12-17T18:44:59.974Z,36.13
2022-12-17T18:47:27.374Z,32.83
2022-12-17T18:49:54.511Z,41.78
2022-12-17T18:52:23.567Z,35.55
2022-12-17T18:54:50.375Z,42.95
2022-12-17T18:57:17.349Z,37.63
2022-12-17T18:59:44.166Z,37.17
2022-12-17T19:02:14.726Z,41.42
2022-12-17T19:04:41.946Z,42.30
2022-12-17T19:07:09.350Z,34.97
2022-12-17T19:09:36.679Z,37.47
2022-12-17T19:12:06.752Z,33.60
2022-12-17T19:14:34.779Z,38.90
2022-12-17T19:17:02.584Z,38.97
2022-12-17T19:19:29.679Z,39.78
2022-12-17T19:21:59.663Z,33.35
2022-12-17T19:24:26.879Z,36.90
2022-12-17T19:26:54.232Z,38.88
2022-12-17T19:29:22.332Z,40.28
2022-12-17T19:31:49.916Z,34.55
2022-12-17T19:34:19.176Z,38.83
2022-12-17T19:36:47.390Z,38.40
2022-12-17T19:39:17.384Z,38.38
2022-12-17T19:41:44.363Z,40.28
2022-12-17T19:44:13.872Z,35.13
2022-12-17T19:46:41.224Z,39.55
2022-12-17T19:49:11.048Z,43.63
2022-12-17T19:51:40.339Z,44.75
2022-12-17T19:54:09.061Z,43.15
2022-12-17T19:56:36.805Z,42.05
2022-12-17T19:59:07.569Z,40.45
2022-12-17T20:01:37.407Z,34.25
2022-12-17T20:04:05.681Z,33.40
2022-12-17T20:06:34.411Z,34.95
2022-12-17T20:09:03.735Z,38.38
2022-12-17T20:11:33.403Z,35.38
2022-12-17T20:14:14.044Z,38.95
2022-12-17T20:16:50.077Z,38.45
2022-12-17T20:19:22.956Z,40.58
2022-12-17T20:21:50.832Z,41.25
2022-12-17T20:24:18.490Z,41.85
2022-12-17T20:26:48.359Z,38.85
2022-12-17T20:29:15.301Z,37.50
2022-12-17T20:31:49.549Z,37.10
2022-12-17T20:34:18.926Z,33.55
2022-12-17T20:36:49.118Z,39.22
2022-12-17T20:39:16.311Z,37.60
2022-12-17T20:41:44.377Z,36.80
2022-12-17T20:44:14.767Z,34.65
2022-12-17T20:46:42.700Z,37.35
2022-12-17T20:49:11.940Z,42.53
2022-12-17T20:51:39.022Z,30.88
2022-12-17T20:54:08.234Z,36.30
2022-12-17T20:56:35.662Z,32.30
2022-12-17T20:59:06.801Z,32.88
2022-12-17T21:01:36.499Z,34.80
2022-12-17T21:04:07.285Z,37.47
2022-12-17T21:06:40.181Z,34.95
2022-12-17T21:09:08.421Z,28.60
2022-12-17T21:11:36.893Z,30.52
2022-12-17T21:14:06.797Z,29.52
2022-12-17T21:16:34.805Z,27.20
2022-12-17T21:19:04.126Z,28.35
2022-12-17T21:21:33.784Z,30.15
2022-12-17T21:24:01.403Z,28.55
2022-12-17T21:26:33.951Z,32.38
2022-12-17T21:29:02.935Z,25.75
2022-12-17T21:31:33.120Z,25.77
2022-12-17T21:34:02.823Z,26.38
2022-12-17T21:36:31.908Z,27.15
2022-12-17T21:38:59.298Z,30.98
2022-12-17T21:41:29.340Z,26.35
2022-12-17T21:43:58.718Z,29.23
2022-12-17T21:46:27.353Z,26.35
2022-12-17T21:48:55.336Z,23.80
2022-12-17T21:51:22.574Z,24.60
2022-12-17T21:53:54.439Z,25.67
2022-12-17T21:56:22.002Z,22.92
2022-12-17T21:58:49.960Z,25.63
2022-12-17T22:01:23.636Z,20.92
2022-12-17T22:03:53.625Z,22.63
2022-12-17T22:06:23.888Z,18.10
2022-12-17T22:08:54.751Z,22.00
2022-12-17T22:11:28.194Z,18.23
2022-12-17T22:14:07.507Z,21.13
2022-12-17T22:16:46.671Z,20.35
2022-12-17T22:19:25.418Z,24.80
2022-12-17T22:21:55.791Z,21.77
2022-12-17T22:24:25.256Z,23.83
2022-12-17T22:26:59.990Z,23.40
2022-12-17T22:29:46.951Z,19.73
2022-12-17T22:32:33.570Z,18.25
2022-12-17T22:36:09.963Z,20.13
2022-12-17T22:41:45.051Z,18.15
2022-12-17T22:44:35.059Z,15.75
2022-12-17T22:44:46.627Z,13.38
2022-12-17T22:46:16.918Z,15.30
2022-12-17T22:48:44.137Z,19.92
2022-12-17T22:51:16.989Z,18.23
2022-12-17T22:53:46.463Z,13.75
2022-12-17T22:56:28.992Z,19.23
2022-12-17T22:59:00.783Z,15.77
2022-12-17T23:01:27.719Z,15.90
2022-12-17T23:03:59.562Z,23.40
2022-12-17T23:06:26.888Z,23.90
2022-12-17T23:08:54.293Z,21.85
2022-12-17T23:11:23.526Z,19.23
2022-12-17T23:13:51.134Z,17.52
2022-12-17T23:16:18.549Z,18.88
2022-12-17T23:18:46.914Z,23.92
2022-12-17T23:21:23.882Z,21.73
2022-12-17T23:23:51.933Z,17.63
2022-12-17T23:26:21.296Z,20.13
2022-12-17T23:28:48.457Z,21.67
2022-12-17T23:31:18.970Z,16.80
2022-12-17T23:33:46.617Z,21.33
2022-12-17T23:36:22.441Z,20.10
2022-12-17T23:38:50.600Z,22.30
2022-12-17T23:41:23.455Z,21.48
2022-12-17T23:43:50.702Z,19.92
2022-12-17T23:46:19.166Z,20.75
2022-12-17T23:48:47.345Z,22.85
2022-12-17T23:51:17.201Z,23.73
2022-12-17T23:53:44.544Z,23.33
2022-12-17T23:56:18.018Z,24.42
2022-12-17T23:58:46.069Z,25.67
